Time;durP1;ratioP1;P1;durP2;ratioP2;P2;SDS_P1;SDS_P2;PMS_P1;PMS_P2;Temp;Humidity;BMP_temperature;BMP_pressure;BME280_temperature;BME280_humidity;BME280_pressure;Samples;Min_cycle;Max_cycle;Signal;HPM_P1;HPM_P2
2022/08/15 00:01:55;;;;;;;11.18;8.70;;;21.60;99.90;;;;;;5027682;28;20041;-72
2022/08/15 00:04:21;;;;;;;10.30;8.82;;;21.60;99.90;;;;;;5036605;28;20051;-72
2022/08/15 00:06:47;;;;;;;11.48;9.68;;;21.60;99.90;;;;;;5055197;28;20041;-72
2022/08/15 00:09:18;;;;;;;10.57;9.25;;;21.60;99.90;;;;;;5047034;28;20124;-72
2022/08/15 00:11:46;;;;;;;10.77;9.07;;;21.60;99.90;;;;;;5032894;28;20515;-72
2022/08/15 00:14:19;;;;;;;10.75;8.73;;;21.60;99.90;;;;;;5029363;28;20088;-72
2022/08/15 00:16:47;;;;;;;10.73;9.55;;;21.50;99.90;;;;;;5043599;28;20037;-72
2022/08/15 00:19:16;;;;;;;11.73;8.80;;;21.50;99.90;;;;;;5048805;28;20041;-72
2022/08/15 00:21:54;;;;;;;10.02;8.88;;;21.30;99.90;;;;;;5050137;28;20051;-72
2022/08/15 00:24:23;;;;;;;14.35;10.20;;;21.30;99.90;;;;;;5035807;28;20045;-72
2022/08/15 00:26:50;;;;;;;11.00;9.73;;;21.30;99.90;;;;;;5048410;28;20073;-72
2022/08/15 00:29:18;;;;;;;11.48;9.88;;;21.10;99.90;;;;;;5016474;28;20037;-72
2022/08/15 00:31:44;;;;;;;12.15;10.40;;;21.10;99.90;;;;;;5047339;28;20048;-72
2022/08/15 00:34:13;;;;;;;12.38;10.45;;;21.00;99.90;;;;;;5052584;28;20044;-71
2022/08/15 00:36:39;;;;;;;11.38;9.23;;;20.90;99.90;;;;;;5069204;28;20048;-71
2022/08/15 00:39:06;;;;;;;11.68;10.48;;;20.80;99.90;;;;;;5052489;28;20037;-72
2022/08/15 00:41:41;;;;;;;13.82;10.05;;;20.80;99.90;;;;;;5039812;28;20478;-71
2022/08/15 00:44:30;;;;;;;12.73;10.02;;;20.80;99.90;;;;;;5069038;28;20040;-71
2022/08/15 00:47:03;;;;;;;12.27;10.20;;;20.90;99.90;;;;;;5045653;28;20065;-72
2022/08/15 00:49:31;;;;;;;11.60;10.40;;;20.80;99.90;;;;;;5048140;28;20058;-72
2022/08/15 00:52:04;;;;;;;11.68;9.77;;;20.70;99.90;;;;;;5048395;28;20045;-72
2022/08/15 00:54:41;;;;;;;12.35;10.07;;;20.80;99.90;;;;;;5051657;28;20115;-72
2022/08/15 00:57:27;;;;;;;12.70;11.10;;;20.80;99.90;;;;;;5052506;28;20037;-72
2022/08/15 00:59:57;;;;;;;12.18;10.07;;;20.90;99.90;;;;;;5033089;28;20147;-72
2022/08/15 01:02:29;;;;;;;12.25;10.60;;;20.80;99.90;;;;;;5037575;28;20068;-72
2022/08/15 01:04:54;;;;;;;11.65;10.45;;;20.70;99.90;;;;;;5052454;28;20440;-72
2022/08/15 01:07:21;;;;;;;17.17;10.85;;;20.70;99.90;;;;;;5050535;28;20048;-71
2022/08/15 01:09:47;;;;;;;12.45;10.50;;;20.70;99.90;;;;;;5051975;28;20493;-72
2022/08/15 01:12:17;;;;;;;13.80;10.75;;;20.70;99.90;;;;;;5050752;28;20045;-72
2022/08/15 01:14:47;;;;;;;11.52;9.95;;;20.80;99.90;;;;;;5051759;28;20057;-72
2022/08/15 01:17:14;;;;;;;12.02;10.07;;;20.80;99.90;;;;;;5035553;28;20508;-72
2022/08/15 01:19:45;;;;;;;12.13;10.02;;;20.80;99.90;;;;;;5067821;28;20075;-72
2022/08/15 01:22:13;;;;;;;13.82;11.32;;;20.70;99.90;;;;;;5026563;28;20050;-72
2022/08/15 01:24:57;;;;;;;14.75;11.30;;;20.70;99.90;;;;;;5047156;28;20045;-72
2022/08/15 01:27:29;;;;;;;13.73;10.63;;;20.70;99.90;;;;;;5032191;28;20196;-72
2022/08/15 01:29:56;;;;;;;;;;;20.70;99.90;;;;;;5048968;28;20049;-72
2022/08/15 01:32:21;;;;;;;15.07;11.45;;;20.70;99.90;;;;;;5030012;28;19970;-72
2022/08/15 01:34:48;;;;;;;15.23;11.38;;;20.70;99.90;;;;;;5048395;28;20124;-73
2022/08/15 01:37:13;;;;;;;13.50;11.23;;;20.70;99.90;;;;;;5048409;28;20485;-72
2022/08/15 01:39:50;;;;;;;12.30;10.40;;;20.70;99.90;;;;;;5048906;28;20040;-72
2022/08/15 01:42:22;;;;;;;12.18;9.63;;;20.70;99.90;;;;;;5020646;28;20041;-72
2022/08/15 01:45:14;;;;;;;10.75;9.60;;;20.80;99.90;;;;;;5051741;28;20139;-72
2022/08/15 01:47:47;;;;;;;;;;;20.80;99.90;;;;;;5035723;28;20040;-72
2022/08/15 01:50:33;;;;;;;11.32;10.07;;;20.70;99.90;;;;;;5047525;28;19928;-72
2022/08/15 01:53:10;;;;;;;13.02;10.25;;;20.70;99.90;;;;;;5048282;28;20061;-72
2022/08/15 01:55:45;;;;;;;12.63;10.38;;;20.80;99.90;;;;;;5031566;28;20037;-72
2022/08/15 01:58:11;;;;;;;14.50;10.75;;;20.80;99.90;;;;;;5031648;28;20045;-72
2022/08/15 02:00:37;;;;;;;13.93;11.45;;;20.80;99.90;;;;;;5033310;28;20413;-72
2022/08/15 02:03:03;;;;;;;13.18;11.25;;;20.70;99.90;;;;;;5029795;28;20037;-71
2022/08/15 02:05:29;;;;;;;12.55;10.30;;;20.70;99.90;;;;;;5055622;28;20494;-71
2022/08/15 02:07:55;;;;;;;11.70;10.00;;;20.70;99.90;;;;;;5055390;28;20048;-72
2022/08/15 02:10:22;;;;;;;13.38;10.63;;;20.80;99.90;;;;;;5034895;28;20047;-71
2022/08/15 02:12:48;;;;;;;13.10;10.77;;;20.90;99.90;;;;;;5024217;28;20037;-72
2022/08/15 02:15:19;;;;;;;14.93;11.00;;;20.80;99.90;;;;;;5055194;28;20507;-71
2022/08/15 02:17:45;;;;;;;13.20;10.27;;;20.80;99.90;;;;;;5071237;28;20444;-71
2022/08/15 02:20:13;;;;;;;12.77;9.85;;;20.70;99.90;;;;;;5052837;28;20094;-72
2022/08/15 02:22:39;;;;;;;12.77;10.60;;;20.70;99.90;;;;;;5018880;28;20077;-72
2022/08/15 02:25:07;;;;;;;13.23;9.77;;;20.70;99.90;;;;;;5035329;28;20083;-72
2022/08/15 02:27:35;;;;;;;12.25;10.02;;;20.70;99.90;;;;;;5035134;28;20037;-72
2022/08/15 02:30:16;;;;;;;12.38;10.73;;;20.70;99.90;;;;;;5034888;28;20056;-72
2022/08/15 02:32:43;;;;;;;13.02;10.82;;;20.70;99.90;;;;;;5032012;28;20075;-71
2022/08/15 02:35:12;;;;;;;13.23;10.68;;;20.60;99.90;;;;;;5038190;28;20036;-71
2022/08/15 02:37:38;;;;;;;13.27;10.02;;;20.70;99.90;;;;;;5054865;28;20044;-72
2022/08/15 02:40:07;;;;;;;13.93;10.77;;;20.60;99.90;;;;;;5036936;28;20048;-71
2022/08/15 02:42:35;;;;;;;13.25;11.40;;;20.60;99.90;;;;;;5054006;28;20049;-72
2022/08/15 02:45:01;;;;;;;12.70;11.00;;;20.60;99.90;;;;;;5054084;28;20413;-71
2022/08/15 02:47:27;;;;;;;14.40;11.40;;;20.70;99.90;;;;;;5054768;28;20037;-71
2022/08/15 02:49:53;;;;;;;14.07;10.60;;;20.70;99.90;;;;;;5053553;28;20484;-72
2022/08/15 02:52:19;;;;;;;14.07;11.77;;;20.70;99.90;;;;;;5054551;28;20187;-71
2022/08/15 02:54:44;;;;;;;13.05;11.65;;;20.70;99.90;;;;;;5054601;28;20044;-71
2022/08/15 02:57:10;;;;;;;13.63;11.20;;;20.70;99.90;;;;;;5053520;28;20120;-72
2022/08/15 02:59:36;;;;;;;12.27;10.45;;;20.70;99.90;;;;;;5054726;28;20041;-72
2022/08/15 03:02:02;;;;;;;13.35;11.50;;;20.70;99.90;;;;;;5051818;28;20111;-72
2022/08/15 03:04:30;;;;;;;13.95;11.57;;;20.70;99.90;;;;;;5071076;28;20044;-72
2022/08/15 03:06:56;;;;;;;13.25;11.18;;;20.70;99.90;;;;;;5053303;28;20037;-72
2022/08/15 03:09:22;;;;;;;11.90;10.45;;;20.80;99.90;;;;;;5054269;28;20033;-72
2022/08/15 03:11:49;;;;;;;11.82;10.15;;;20.70;99.90;;;;;;5052502;28;20098;-72
2022/08/15 03:14:17;;;;;;;14.50;9.93;;;20.80;99.90;;;;;;5054044;28;20452;-72
2022/08/15 03:16:46;;;;;;;13.13;9.93;;;20.80;99.90;;;;;;5053170;28;20055;-71
2022/08/15 03:19:16;;;;;;;15.80;11.60;;;20.80;99.90;;;;;;5054023;28;20033;-71
2022/08/15 03:21:42;;;;;;;12.88;10.68;;;20.70;99.90;;;;;;5038614;28;20037;-71
2022/08/15 03:24:09;;;;;;;14.93;11.82;;;20.60;99.90;;;;;;5017866;28;20033;-71
2022/08/15 03:26:35;;;;;;;17.92;12.65;;;20.60;99.90;;;;;;5080140;28;20115;-71
2022/08/15 03:29:02;;;;;;;13.60;11.93;;;20.60;99.90;;;;;;5053798;28;20072;-71
2022/08/15 03:31:27;;;;;;;13.60;12.02;;;20.60;99.90;;;;;;5047319;28;20041;-71
2022/08/15 03:33:53;;;;;;;14.38;12.88;;;20.50;99.90;;;;;;5037573;28;20135;-71
2022/08/15 03:36:21;;;;;;;14.88;12.10;;;20.40;99.90;;;;;;5052786;28;20075;-71
2022/08/15 03:38:47;;;;;;;14.13;12.48;;;20.40;99.90;;;;;;5037129;28;20033;-71
2022/08/15 03:41:14;;;;;;;14.98;12.90;;;20.40;99.90;;;;;;5043049;28;20060;-71
2022/08/15 03:43:42;;;;;;;13.90;12.35;;;20.40;99.90;;;;;;5031757;28;20053;-71
2022/08/15 03:46:11;;;;;;;13.10;11.70;;;20.40;99.90;;;;;;5065509;28;20490;-71
2022/08/15 03:48:43;;;;;;;15.88;12.23;;;20.40;99.90;;;;;;5033862;28;20131;-71
2022/08/15 03:51:10;;;;;;;14.13;12.50;;;20.40;99.90;;;;;;5033229;28;20494;-71
2022/08/15 03:53:43;;;;;;;13.00;11.52;;;20.40;99.90;;;;;;5033487;28;20044;-71
2022/08/15 03:56:10;;;;;;;12.65;11.02;;;20.50;99.90;;;;;;5033525;28;20033;-72
2022/08/15 03:58:37;;;;;;;14.00;11.40;;;20.50;99.90;;;;;;5046590;28;20033;-71
2022/08/15 04:01:11;;;;;;;12.32;10.48;;;20.50;99.90;;;;;;5052544;28;20546;-71
2022/08/15 04:03:37;;;;;;;14.07;11.65;;;20.50;99.90;;;;;;5070011;28;20071;-71
2022/08/15 04:06:06;;;;;;;12.95;11.55;;;20.40;99.90;;;;;;5044157;28;20048;-71
2022/08/15 04:08:33;;;;;;;14.60;12.38;;;20.40;99.90;;;;;;5050085;28;20468;-71
2022/08/15 04:11:02;;;;;;;14.50;11.40;;;20.50;99.90;;;;;;5034033;28;20044;-71
2022/08/15 04:13:28;;;;;;;12.40;11.02;;;20.40;99.90;;;;;;5032929;28;20111;-72
2022/08/15 04:15:56;;;;;;;14.25;11.25;;;20.50;99.90;;;;;;5033086;28;20103;-71
2022/08/15 04:18:24;;;;;;;13.90;10.75;;;20.40;99.90;;;;;;5043873;28;20569;-71
2022/08/15 04:20:51;;;;;;;14.63;12.00;;;20.40;99.90;;;;;;5052866;28;20043;-71
2022/08/15 04:23:16;;;;;;;15.52;12.25;;;20.40;99.90;;;;;;5047437;28;20087;-71
2022/08/15 04:25:43;;;;;;;13.38;11.98;;;20.40;99.90;;;;;;5049811;28;20041;-71
2022/08/15 04:28:12;;;;;;;13.20;11.80;;;20.40;99.90;;;;;;5049399;28;20045;-71
2022/08/15 04:30:40;;;;;;;15.27;11.55;;;20.40;99.90;;;;;;5035900;28;20048;-71
2022/08/15 04:33:27;;;;;;;16.52;11.27;;;20.30;99.90;;;;;;5052731;28;20037;-71
2022/08/15 04:35:57;;;;;;;23.42;12.23;;;20.40;99.90;;;;;;5033206;28;20045;-71
2022/08/15 04:38:23;;;;;;;20.38;11.52;;;20.30;99.90;;;;;;5049061;28;20506;-71
2022/08/15 04:40:49;;;;;;;15.63;11.07;;;20.40;99.90;;;;;;5032921;28;20130;-72
2022/08/15 04:43:16;;;;;;;13.48;10.50;;;20.30;99.90;;;;;;5032634;28;20129;-71
2022/08/15 04:45:43;;;;;;;13.10;10.60;;;20.30;99.90;;;;;;5049168;28;20052;-71
2022/08/15 04:48:14;;;;;;;12.50;11.05;;;20.20;99.90;;;;;;5049266;28;20390;-71
2022/08/15 04:50:41;;;;;;;12.33;11.03;;;20.30;99.90;;;;;;5032346;28;20042;-71
2022/08/15 04:53:08;;;;;;;12.02;10.52;;;20.30;99.90;;;;;;5045483;28;20041;-71
2022/08/15 04:55:35;;;;;;;13.13;11.73;;;20.20;99.90;;;;;;5032381;28;20116;-71
2022/08/15 04:58:01;;;;;;;14.02;12.30;;;20.10;99.90;;;;;;5032524;28;20049;-71
2022/08/15 05:00:30;;;;;;;14.25;12.52;;;20.10;99.90;;;;;;5041987;28;20079;-72
2022/08/15 05:03:01;;;;;;;15.88;12.52;;;20.10;99.90;;;;;;5035597;28;20509;-71
2022/08/15 05:05:27;;;;;;;14.45;12.05;;;20.10;99.90;;;;;;5035613;28;20080;-71
2022/08/15 05:07:53;;;;;;;14.35;12.05;;;20.00;99.90;;;;;;5035452;28;20055;-71
2022/08/15 05:10:18;;;;;;;16.48;10.48;;;20.10;99.90;;;;;;5032648;28;20050;-71
2022/08/15 05:12:44;;;;;;;13.02;11.40;;;20.10;99.90;;;;;;5031950;28;20049;-71
2022/08/15 05:15:12;;;;;;;14.13;12.05;;;20.10;99.90;;;;;;5032374;28;20064;-71
2022/08/15 05:17:38;;;;;;;15.18;11.35;;;20.10;99.90;;;;;;5054463;28;20033;-71
2022/08/15 05:20:06;;;;;;;14.95;11.88;;;20.10;99.90;;;;;;5050936;28;20044;-71
2022/08/15 05:22:32;;;;;;;14.55;11.27;;;20.10;99.90;;;;;;5045357;28;20056;-71
2022/08/15 05:24:57;;;;;;;13.52;11.20;;;20.20;99.90;;;;;;5050231;28;20406;-72
2022/08/15 05:27:23;;;;;;;12.30;11.00;;;20.20;99.90;;;;;;5048382;28;20041;-71
2022/08/15 05:29:51;;;;;;;14.75;10.95;;;20.30;99.90;;;;;;5049679;28;20037;-71
2022/08/15 05:32:20;;;;;;;13.27;11.32;;;20.30;99.90;;;;;;5049872;28;20060;-71
2022/08/15 05:34:47;;;;;;;13.50;12.10;;;20.30;99.90;;;;;;5085673;28;20477;-71
2022/08/15 05:37:14;;;;;;;12.75;11.45;;;20.30;99.90;;;;;;5058013;28;20045;-72
2022/08/15 05:39:42;;;;;;;13.18;11.18;;;20.20;99.90;;;;;;5041788;28;20497;-72
2022/08/15 05:42:37;;;;;;;14.27;10.95;;;20.30;99.90;;;;;;5057861;28;20080;-71
2022/08/15 05:45:39;;;;;;;14.43;11.65;;;20.40;99.90;;;;;;5021799;28;20037;-71
2022/08/15 05:48:26;;;;;;;15.32;12.13;;;20.40;99.90;;;;;;5054968;28;20075;-71
2022/08/15 05:51:06;;;;;;;13.00;10.90;;;20.50;99.90;;;;;;5050050;28;20563;-71
2022/08/15 05:53:46;;;;;;;12.50;11.15;;;20.50;99.90;;;;;;5064146;28;20128;-71
2022/08/15 05:56:34;;;;;;;20.42;12.48;;;20.60;99.90;;;;;;5038160;28;20048;-71
2022/08/15 05:59:05;;;;;;;12.85;11.25;;;20.60;99.90;;;;;;5054145;28;20044;-71
2022/08/15 06:01:39;;;;;;;12.40;11.07;;;20.60;99.90;;;;;;5040226;28;20077;-72
2022/08/15 06:04:13;;;;;;;14.75;11.65;;;20.60;99.90;;;;;;5032405;28;20040;-71
2022/08/15 06:06:42;;;;;;;13.93;11.52;;;20.70;99.90;;;;;;5046616;28;20588;-71
2022/08/15 06:09:44;;;;;;;13.52;11.90;;;20.70;99.90;;;;;;5054729;28;20040;-71
2022/08/15 06:12:19;;;;;;;16.35;12.75;;;20.70;99.90;;;;;;5055314;28;20037;-70
2022/08/15 06:14:48;;;;;;;13.95;11.65;;;20.80;99.90;;;;;;5058108;28;20489;-71
2022/08/15 06:17:22;;;;;;;13.70;12.15;;;20.80;99.90;;;;;;5073931;28;20037;-71
2022/08/15 06:19:50;;;;;;;14.07;12.68;;;20.80;99.90;;;;;;5047178;28;20045;-71
2022/08/15 06:22:42;;;;;;;14.20;12.70;;;20.90;99.90;;;;;;5042682;28;20041;-71
2022/08/15 06:25:32;;;;;;;13.70;12.30;;;20.90;99.90;;;;;;5029664;28;20128;-71
2022/08/15 06:28:23;;;;;;;15.25;13.60;;;20.90;99.90;;;;;;5070368;28;20052;-71
2022/08/15 06:31:18;;;;;;;14.25;12.68;;;21.00;99.90;;;;;;5065639;28;20084;-71
2022/08/15 06:33:53;;;;;;;18.88;13.43;;;21.00;99.90;;;;;;5039964;28;20045;-71
2022/08/15 06:36:27;;;;;;;15.23;13.63;;;21.10;99.90;;;;;;5040451;28;20191;-71
2022/08/15 06:39:14;;;;;;;17.08;14.25;;;21.10;99.90;;;;;;5045455;28;20046;-71
2022/08/15 06:41:52;;;;;;;16.73;12.52;;;21.20;99.90;;;;;;5047394;28;20436;-71
2022/08/15 06:44:19;;;;;;;13.88;12.38;;;21.20;99.90;;;;;;5059093;28;20036;-71
2022/08/15 06:46:46;;;;;;;14.77;11.95;;;21.30;99.90;;;;;;5044394;28;20080;-71
2022/08/15 06:49:13;;;;;;;14.45;11.70;;;21.30;99.90;;;;;;5050139;28;20497;-71
2022/08/15 06:51:41;;;;;;;15.52;12.75;;;21.40;99.90;;;;;;5048382;28;20065;-72
2022/08/15 06:54:14;;;;;;;13.73;12.32;;;21.50;99.90;;;;;;5060456;28;20036;-71
2022/08/15 06:56:54;;;;;;;12.18;10.88;;;21.50;99.90;;;;;;5028733;28;20053;-71
2022/08/15 06:59:45;;;;;;;14.27;11.48;;;21.60;99.90;;;;;;5044989;28;20058;-71
2022/08/15 07:02:21;;;;;;;13.90;12.27;;;21.70;99.90;;;;;;5037138;28;20046;-71
2022/08/15 07:05:08;;;;;;;15.50;11.63;;;21.80;99.90;;;;;;5046989;28;20033;-71
2022/08/15 07:07:50;;;;;;;15.40;11.60;;;21.80;99.90;;;;;;5049581;28;20041;-71
2022/08/15 07:10:41;;;;;;;17.42;11.90;;;21.90;99.90;;;;;;5042261;28;20052;-76
2022/08/15 07:13:14;;;;;;;16.40;11.73;;;22.00;99.90;;;;;;5031855;28;20067;-76
2022/08/15 07:16:03;;;;;;;17.63;12.07;;;22.00;99.90;;;;;;5035451;28;20079;-76
2022/08/15 07:18:43;;;;;;;13.55;11.57;;;22.10;99.90;;;;;;5053777;28;20124;-76
2022/08/15 07:21:17;;;;;;;14.15;11.32;;;22.10;99.90;;;;;;5033056;28;20037;-77
2022/08/15 07:24:01;;;;;;;13.30;11.88;;;22.10;99.90;;;;;;5034104;28;20056;-73
2022/08/15 07:26:38;;;;;;;13.27;11.63;;;22.30;99.90;;;;;;5039002;28;20041;-73
2022/08/15 07:29:14;;;;;;;12.55;11.25;;;22.20;99.90;;;;;;5032139;28;20095;-74
2022/08/15 07:31:43;;;;;;;14.60;11.38;;;22.20;99.90;;;;;;5057538;28;20037;-72
2022/08/15 07:34:22;;;;;;;16.25;12.10;;;22.20;99.90;;;;;;5042225;28;20045;-73
2022/08/15 07:37:03;;;;;;;13.15;11.57;;;22.30;99.90;;;;;;5020238;28;20033;-70
2022/08/15 07:39:41;;;;;;;12.15;10.85;;;22.30;99.90;;;;;;5046916;28;20072;-71
2022/08/15 07:42:19;;;;;;;12.10;9.95;;;22.30;99.90;;;;;;5051482;28;20116;-71
2022/08/15 07:44:54;;;;;;;14.95;10.57;;;22.30;99.90;;;;;;5048907;28;20041;-71
2022/08/15 07:47:24;;;;;;;13.52;10.55;;;22.40;99.90;;;;;;5040294;28;20056;-71
2022/08/15 07:50:10;;;;;;;20.80;10.65;;;22.50;99.90;;;;;;5043169;28;20048;-71
2022/08/15 07:52:37;;;;;;;15.45;11.52;;;22.60;99.90;;;;;;5051276;28;20033;-70
2022/08/15 07:55:18;;;;;;;13.40;11.07;;;22.70;99.90;;;;;;5051837;28;20044;-71
2022/08/15 07:58:02;;;;;;;14.00;10.55;;;22.80;99.90;;;;;;5023689;28;20045;-71
2022/08/15 08:00:29;;;;;;;13.32;11.82;;;22.80;99.90;;;;;;5045885;28;20502;-71
2022/08/15 08:03:09;;;;;;;16.38;11.63;;;22.90;99.90;;;;;;5043984;28;20037;-71
2022/08/15 08:05:44;;;;;;;15.02;10.48;;;22.90;99.90;;;;;;5025005;28;20128;-71
2022/08/15 08:08:11;;;;;;;16.10;10.77;;;23.10;99.90;;;;;;5033550;28;20060;-71
2022/08/15 08:11:03;;;;;;;15.20;10.13;;;23.20;99.90;;;;;;5033544;28;20567;-71
2022/08/15 08:13:39;;;;;;;13.30;10.60;;;23.30;99.90;;;;;;5029754;28;20045;-71
2022/08/15 08:16:13;;;;;;;11.48;9.55;;;23.40;99.90;;;;;;5048451;28;20056;-71
2022/08/15 08:19:05;;;;;;;15.15;9.73;;;23.50;99.90;;;;;;5031870;28;20524;-71
2022/08/15 08:21:50;;;;;;;17.05;10.30;;;23.60;99.90;;;;;;5048660;28;20112;-71
2022/08/15 08:24:45;;;;;;;14.93;9.70;;;23.80;99.90;;;;;;5059405;28;20064;-71
2022/08/15 08:27:29;;;;;;;12.00;9.32;;;24.00;99.90;;;;;;5034162;28;20549;-71
2022/08/15 08:30:09;;;;;;;12.07;8.75;;;23.90;99.90;;;;;;5032168;28;20057;-71
2022/08/15 08:33:14;;;;;;;15.95;9.45;;;23.80;99.90;;;;;;5049961;28;20041;-71
2022/08/15 08:35:58;;;;;;;11.02;9.13;;;23.90;99.90;;;;;;5018456;28;20110;-72
2022/08/15 08:38:30;;;;;;;16.25;9.40;;;23.90;99.90;;;;;;5048633;28;20091;-72
2022/08/15 08:41:25;;;;;;;19.15;9.95;;;24.00;99.90;;;;;;5041196;28;20445;-71
2022/08/15 08:44:00;;;;;;;11.82;9.38;;;24.10;99.90;;;;;;5068462;28;20049;-71
2022/08/15 08:46:59;;;;;;;10.70;9.07;;;24.20;99.90;;;;;;5024001;28;20046;-71
2022/08/15 08:49:50;;;;;;;11.75;8.93;;;24.40;99.90;;;;;;5047512;28;20045;-71
2022/08/15 08:52:39;;;;;;;10.77;9.02;;;24.60;99.90;;;;;;5026830;28;20047;-71
2022/08/15 08:55:16;;;;;;;11.00;9.13;;;24.60;99.90;;;;;;5045738;28;20044;-71
2022/08/15 08:57:50;;;;;;;12.82;8.50;;;24.70;99.90;;;;;;5066069;28;20047;-71
2022/08/15 09:00:19;;;;;;;11.77;9.30;;;24.70;99.90;;;;;;5037988;28;20052;-72
2022/08/15 09:03:18;;;;;;;10.23;8.60;;;24.70;99.90;;;;;;5044645;28;20033;-72
2022/08/15 09:05:57;;;;;;;10.23;8.18;;;24.70;99.90;;;;;;5046270;28;20516;-72
2022/08/15 09:08:24;;;;;;;11.90;8.43;;;24.60;99.90;;;;;;5032614;28;20049;-72
2022/08/15 09:10:54;;;;;;;11.77;8.43;;;24.60;99.90;;;;;;5030350;28;20053;-72
2022/08/15 09:13:33;;;;;;;12.00;8.52;;;24.70;99.90;;;;;;5033373;28;20060;-71
2022/08/15 09:16:08;;;;;;;11.23;8.30;;;25.00;99.90;;;;;;5064998;28;20045;-72
2022/08/15 09:18:40;;;;;;;11.57;8.23;;;25.20;99.90;;;;;;5026324;28;20041;-72
2022/08/15 09:21:06;;;;;;;10.05;8.57;;;25.40;99.90;;;;;;5026183;28;20551;-72
2022/08/15 09:23:38;;;;;;;12.63;8.75;;;25.50;99.90;;;;;;5036167;28;20041;-71
2022/08/15 09:26:12;;;;;;;12.38;8.82;;;25.60;99.90;;;;;;5062123;28;20076;-72
2022/08/15 09:28:42;;;;;;;13.98;9.20;;;25.70;99.90;;;;;;5051581;28;20386;-71
2022/08/15 09:31:19;;;;;;;11.25;8.88;;;25.80;99.90;;;;;;5047773;28;20041;-71
2022/08/15 09:33:57;;;;;;;11.15;8.10;;;25.80;99.90;;;;;;5050002;28;20103;-71
2022/08/15 09:36:38;;;;;;;10.77;7.55;;;25.90;99.90;;;;;;5040357;28;20429;-72
2022/08/15 09:39:23;;;;;;;;;;;26.10;99.90;;;;;;5051509;28;20135;-72
2022/08/15 09:42:07;;;;;;;14.05;8.57;;;26.20;99.50;;;;;;5050132;28;20354;-71
2022/08/15 09:45:10;;;;;;;11.73;7.82;;;26.20;99.70;;;;;;5033832;28;20045;-72
2022/08/15 09:47:52;;;;;;;12.75;9.02;;;26.20;99.50;;;;;;5030906;28;20041;-72
2022/08/15 09:50:36;;;;;;;12.00;7.78;;;26.10;99.70;;;;;;5014910;28;20456;-72
2022/08/15 09:53:27;;;;;;;15.32;8.70;;;26.00;99.50;;;;;;5022862;28;20094;-72
2022/08/15 09:55:53;;;;;;;10.05;8.02;;;26.10;99.90;;;;;;5046309;28;20037;-71
2022/08/15 09:58:24;;;;;;;13.23;8.30;;;26.10;99.90;;;;;;5049265;28;20043;-72
2022/08/15 10:01:15;;;;;;;10.82;7.68;;;26.20;99.90;;;;;;5076052;28;20037;-71
2022/08/15 10:03:43;;;;;;;12.88;7.93;;;26.30;99.90;;;;;;5076735;28;20052;-71
2022/08/15 10:06:31;;;;;;;9.35;7.75;;;26.20;99.90;;;;;;5030163;28;20045;-71
2022/08/15 10:09:02;;;;;;;13.77;8.07;;;26.20;99.90;;;;;;5037191;28;20458;-72
2022/08/15 10:11:30;;;;;;;13.93;8.77;;;26.10;99.90;;;;;;5036908;28;20509;-72
2022/08/15 10:14:21;;;;;;;11.05;8.60;;;26.10;99.90;;;;;;5031860;28;20059;-71
2022/08/15 10:16:53;;;;;;;11.75;8.15;;;26.10;99.90;;;;;;5001404;28;20048;-72
2022/08/15 10:19:38;;;;;;;13.60;9.15;;;26.20;99.90;;;;;;5040544;28;20112;-72
2022/08/15 10:22:22;;;;;;;11.13;8.63;;;26.40;99.90;;;;;;5051960;28;20047;-72
2022/08/15 10:25:36;;;;;;;11.40;8.32;;;26.60;99.90;;;;;;5035270;28;20394;-72
2022/08/15 10:28:10;;;;;;;11.20;8.57;;;26.80;99.90;;;;;;5017559;28;20057;-72
2022/08/15 10:30:39;;;;;;;11.55;8.82;;;26.80;99.90;;;;;;5084007;28;20045;-72
2022/08/15 10:33:33;;;;;;;14.18;8.95;;;26.80;99.80;;;;;;5038580;28;20044;-72
2022/08/15 10:36:17;;;;;;;11.35;9.00;;;26.80;99.60;;;;;;5055380;28;20116;-72
2022/08/15 10:38:52;;;;;;;12.65;9.73;;;26.80;99.90;;;;;;5054719;28;20037;-71
2022/08/15 10:41:37;;;;;;;12.68;10.07;;;26.80;99.90;;;;;;5047041;28;20037;-72
2022/08/15 10:44:20;;;;;;;13.35;10.70;;;26.80;99.90;;;;;;5065470;28;20056;-72
2022/08/15 10:47:15;;;;;;;12.45;9.95;;;26.80;99.90;;;;;;5033631;28;20053;-72
2022/08/15 10:50:14;;;;;;;12.25;10.50;;;26.70;99.90;;;;;;5033501;28;20565;-72
2022/08/15 10:53:10;;;;;;;11.52;10.07;;;26.60;99.90;;;;;;5046202;28;20033;-73
2022/08/15 10:55:39;;;;;;;12.57;10.88;;;26.50;99.90;;;;;;5040699;28;20044;-73
2022/08/15 10:58:11;;;;;;;11.70;10.50;;;26.40;99.90;;;;;;5052004;28;20036;-73
2022/08/15 11:00:51;;;;;;;15.27;12.93;;;26.30;99.90;;;;;;5050811;28;20045;-72
2022/08/15 11:03:40;;;;;;;15.35;13.13;;;26.30;99.90;;;;;;5042237;28;20037;-72
2022/08/15 11:06:12;;;;;;;15.52;13.88;;;26.10;99.90;;;;;;5049634;28;20072;-72
2022/08/15 11:08:49;;;;;;;15.77;13.77;;;26.00;99.90;;;;;;5047829;28;20151;-72
2022/08/15 11:11:17;;;;;;;15.40;13.43;;;25.90;99.90;;;;;;5051642;28;20498;-72
2022/08/15 11:13:56;;;;;;;15.80;13.80;;;25.70;99.90;;;;;;5053749;28;20052;-72
2022/08/15 11:16:35;;;;;;;16.23;14.10;;;25.60;99.90;;;;;;5043054;28;20052;-73
2022/08/15 11:19:14;;;;;;;15.55;13.98;;;25.40;99.90;;;;;;5041170;28;20091;-72
2022/08/15 11:22:07;;;;;;;15.02;12.95;;;25.30;99.90;;;;;;5020352;28;20052;-72
2022/08/15 11:24:40;;;;;;;16.75;14.48;;;25.20;99.90;;;;;;5033623;28;20440;-73
2022/08/15 11:27:24;;;;;;;15.15;13.52;;;25.10;99.90;;;;;;5047475;28;20044;-73
2022/08/15 11:29:55;;;;;;;15.95;13.90;;;25.10;99.90;;;;;;5032953;28;20088;-73
2022/08/15 11:32:32;;;;;;;18.80;15.38;;;25.20;99.90;;;;;;5033252;28;20112;-72
2022/08/15 11:35:01;;;;;;;17.25;14.52;;;25.20;99.90;;;;;;5040837;28;20045;-72
2022/08/15 11:37:31;;;;;;;16.90;14.27;;;25.20;99.90;;;;;;5049799;28;20041;-73
2022/08/15 11:40:18;;;;;;;14.13;11.05;;;25.20;99.90;;;;;;5032927;28;20123;-73
2022/08/15 11:42:46;;;;;;;11.85;10.50;;;25.20;99.90;;;;;;5033886;28;20094;-73
2022/08/15 11:45:26;;;;;;;16.30;14.07;;;25.20;99.90;;;;;;5052388;28;20033;-73
2022/08/15 11:47:54;;;;;;;14.43;11.68;;;25.30;99.90;;;;;;5057372;28;20124;-73
2022/08/15 11:50:37;;;;;;;16.40;13.35;;;25.30;99.90;;;;;;5041431;28;20079;-73
2022/08/15 11:53:06;;;;;;;15.15;12.13;;;25.30;99.90;;;;;;5047007;28;20393;-73
2022/08/15 11:55:32;;;;;;;14.13;12.63;;;25.30;99.90;;;;;;5033929;28;20049;-73
2022/08/15 11:58:28;;;;;;;16.13;12.75;;;25.30;99.90;;;;;;5055447;28;20478;-73
2022/08/15 12:00:57;;;;;;;14.90;12.65;;;25.30;99.90;;;;;;5044654;28;20056;-73
2022/08/15 12:03:26;;;;;;;14.00;12.50;;;25.30;99.90;;;;;;5059115;28;20501;-73
2022/08/15 12:06:11;;;;;;;17.15;12.13;;;25.20;99.90;;;;;;5052825;28;20087;-73
2022/08/15 12:08:38;;;;;;;13.35;11.63;;;25.20;99.90;;;;;;5053060;28;20040;-73
2022/08/15 12:11:24;;;;;;;13.82;12.05;;;25.20;99.90;;;;;;5035996;28;20165;-73
2022/08/15 12:14:03;;;;;;;13.95;10.77;;;25.10;99.90;;;;;;5052485;28;20568;-73
2022/08/15 12:16:38;;;;;;;11.35;10.07;;;25.20;99.90;;;;;;5039376;28;20045;-73
2022/08/15 12:19:23;;;;;;;11.20;9.40;;;25.10;99.90;;;;;;5049599;28;20029;-73
2022/08/15 12:21:50;;;;;;;14.50;11.18;;;25.10;99.90;;;;;;5033940;28;20037;-73
2022/08/15 12:24:27;;;;;;;15.27;12.30;;;25.10;99.90;;;;;;5052133;28;20037;-73
2022/08/15 12:26:55;;;;;;;14.70;11.80;;;25.20;99.90;;;;;;5032134;28;20041;-73
2022/08/15 12:29:22;;;;;;;14.60;11.85;;;25.20;99.90;;;;;;5053480;28;20443;-73
2022/08/15 12:31:49;;;;;;;14.02;12.00;;;25.30;99.90;;;;;;5029072;28;20033;-73
2022/08/15 12:34:32;;;;;;;15.75;12.88;;;25.30;99.90;;;;;;5046247;28;20048;-73
2022/08/15 12:37:01;;;;;;;18.95;13.73;;;25.30;99.90;;;;;;5065621;28;20064;-78
2022/08/15 12:39:27;;;;;;;17.88;16.08;;;25.30;99.90;;;;;;5042570;28;20048;-75
2022/08/15 12:41:54;;;;;;;17.75;14.50;;;25.40;99.90;;;;;;5051367;28;20120;-75
2022/08/15 12:44:30;;;;;;;18.02;15.75;;;25.40;99.90;;;;;;5048640;28;20045;-78
2022/08/15 12:46:57;;;;;;;17.23;15.43;;;25.40;99.90;;;;;;5049439;28;20049;-78
2022/08/15 12:49:23;;;;;;;17.90;13.57;;;25.40;99.90;;;;;;5043779;28;20145;-77
2022/08/15 12:51:49;;;;;;;14.40;11.60;;;25.40;99.90;;;;;;5040434;28;20120;-78
2022/08/15 12:54:15;;;;;;;12.35;10.63;;;25.40;99.90;;;;;;5051606;28;20034;-78
2022/08/15 12:56:42;;;;;;;12.93;11.50;;;25.50;99.90;;;;;;5052149;28;20029;-77
2022/08/15 12:59:08;;;;;;;12.82;11.23;;;25.50;99.90;;;;;;5032091;28;20129;-73
2022/08/15 13:01:35;;;;;;;12.77;10.52;;;25.50;99.90;;;;;;5049810;28;20120;-73
2022/08/15 13:04:05;;;;;;;13.00;9.88;;;25.40;99.90;;;;;;5027666;28;20094;-73
2022/08/15 13:06:48;;;;;;;11.20;10.00;;;25.50;99.90;;;;;;5043799;28;20045;-73